createdAt,value
2018-11-22T00:01:08.341Z,102604.41
2018-11-22T00:03:37.927Z,102606.45
2018-11-22T00:06:08.008Z,102607.70
2018-11-22T00:08:37.888Z,102600.65
2018-11-22T00:11:07.542Z,102601.98
2018-11-22T00:13:36.299Z,102593.55
2018-11-22T00:16:06.139Z,102598.23
2018-11-22T00:18:35.493Z,102591.63
2018-11-22T00:21:05.067Z,102601.54
2018-11-22T00:23:34.230Z,102603.69
2018-11-22T00:26:03.235Z,102596.98
2018-11-22T00:28:32.224Z,102599.94
2018-11-22T00:31:01.225Z,102607.12
2018-11-22T00:33:30.531Z,102597.16
2018-11-22T00:35:59.663Z,102597.79
2018-11-22T00:38:28.345Z,102596.77
2018-11-22T00:40:57.600Z,102600.65
2018-11-22T00:43:27.305Z,102598.27
2018-11-22T00:45:57.433Z,102599.17
2018-11-22T00:48:26.791Z,102599.98
2018-11-22T00:50:57.030Z,102605.38
2018-11-22T00:53:26.177Z,102606.05
2018-11-22T00:55:56.253Z,102609.94
2018-11-22T00:58:26.144Z,102605.50
2018-11-22T01:00:55.632Z,102609.33
2018-11-22T01:03:27.131Z,102612.23
2018-11-22T01:05:56.457Z,102611.96
2018-11-22T01:08:25.493Z,102607.52
2018-11-22T01:10:54.554Z,102615.27
2018-11-22T01:13:23.955Z,102611.15
2018-11-22T01:15:53.281Z,102619.88
2018-11-22T01:18:23.552Z,102615.88
2018-11-22T01:20:52.984Z,102615.36
2018-11-22T01:23:22.954Z,102620.45
2018-11-22T01:25:52.994Z,102616.48
2018-11-22T01:28:23.009Z,102617.25
2018-11-22T01:30:52.489Z,102621.86
2018-11-22T01:33:22.222Z,102618.15
2018-11-22T01:35:51.650Z,102618.70
2018-11-22T01:38:20.661Z,102620.20
2018-11-22T01:40:50.928Z,102614.34
2018-11-22T01:43:19.957Z,102607.06
2018-11-22T01:45:48.953Z,102616.65
2018-11-22T01:48:18.358Z,102616.63
2018-11-22T01:50:47.329Z,102606.91
2018-11-22T01:53:16.357Z,102611.42
2018-11-22T01:55:45.441Z,102612.34
2018-11-22T01:58:15.169Z,102613.45
2018-11-22T02:00:44.801Z,102611.05
2018-11-22T02:03:13.921Z,102616.03
2018-11-22T02:05:43.245Z,102618.35
2018-11-22T02:08:12.860Z,102618.23
2018-11-22T02:10:41.928Z,102612.03
2018-11-22T02:13:11.511Z,102602.09
2018-11-22T02:15:41.257Z,102613.20
2018-11-22T02:18:10.911Z,102607.79
2018-11-22T02:20:40.258Z,102612.77
2018-11-22T02:23:08.940Z,102607.62
2018-11-22T02:25:38.651Z,102613.33
2018-11-22T02:28:08.097Z,102610.94
2018-11-22T02:30:37.498Z,102607.67
2018-11-22T02:33:06.599Z,102612.89
2018-11-22T02:35:36.238Z,102613.00
2018-11-22T02:38:05.784Z,102613.98
2018-11-22T02:40:35.861Z,102605.36
2018-11-22T02:43:07.564Z,102613.56
2018-11-22T02:45:37.645Z,102609.86
2018-11-22T02:48:18.198Z,102614.87
2018-11-22T02:50:48.525Z,102612.38
2018-11-22T02:53:17.536Z,102606.55
2018-11-22T02:55:46.726Z,102618.66
2018-11-22T02:58:16.160Z,102623.98
2018-11-22T03:00:46.433Z,102615.41
2018-11-22T03:03:17.050Z,102620.52
2018-11-22T03:05:47.327Z,102620.92
2018-11-22T03:08:17.337Z,102614.16
2018-11-22T03:10:46.982Z,102613.50
2018-11-22T03:13:17.658Z,102616.59
2018-11-22T03:15:47.231Z,102620.00
2018-11-22T03:18:16.355Z,102614.05
2018-11-22T03:20:45.760Z,102617.03
2018-11-22T03:23:14.483Z,102618.04
2018-11-22T03:25:44.389Z,102617.23
2018-11-22T03:28:14.177Z,102620.73
2018-11-22T03:30:43.506Z,102622.55
2018-11-22T03:33:12.855Z,102617.91
2018-11-22T03:35:42.256Z,102612.46
2018-11-22T03:38:12.950Z,102615.48
2018-11-22T03:40:42.012Z,102614.68
2018-11-22T03:43:11.700Z,102615.45
2018-11-22T03:45:41.170Z,102609.20
2018-11-22T03:48:16.229Z,102612.45
2018-11-22T03:50:45.533Z,102611.70
2018-11-22T03:53:14.800Z,102614.75
2018-11-22T03:55:43.952Z,102618.89
2018-11-22T03:58:13.007Z,102618.08
2018-11-22T04:00:41.987Z,102609.21
2018-11-22T04:03:11.717Z,102602.59
2018-11-22T04:05:40.684Z,102605.11
2018-11-22T04:08:10.017Z,102610.28
2018-11-22T04:10:39.357Z,102608.03
2018-11-22T04:13:08.302Z,102607.81
2018-11-22T04:15:37.629Z,102609.16
2018-11-22T04:18:06.812Z,102606.88
2018-11-22T04:20:36.164Z,102611.05
2018-11-22T04:23:06.182Z,102606.63
2018-11-22T04:25:35.221Z,102605.33
2018-11-22T04:28:05.728Z,102607.47
2018-11-22T04:30:35.176Z,102609.98
2018-11-22T04:33:03.926Z,102605.84
2018-11-22T04:35:32.981Z,102605.87
2018-11-22T04:38:02.385Z,102606.73
2018-11-22T04:40:32.606Z,102597.42
2018-11-22T04:43:01.706Z,102596.86
2018-11-22T04:45:30.394Z,102589.00
2018-11-22T04:48:03.678Z,102595.39
2018-11-22T04:50:34.105Z,102587.92
2018-11-22T04:53:05.047Z,102584.97
2018-11-22T04:55:34.446Z,102586.11
2018-11-22T04:58:03.487Z,102588.48
2018-11-22T05:00:32.872Z,102585.71
2018-11-22T05:03:01.875Z,102584.56
2018-11-22T05:05:31.264Z,102586.89
2018-11-22T05:08:00.906Z,102582.09
2018-11-22T05:10:29.975Z,102575.66
2018-11-22T05:12:59.246Z,102576.70
2018-11-22T05:15:30.140Z,102573.04
2018-11-22T05:17:59.478Z,102577.29
2018-11-22T05:20:28.174Z,102574.16
2018-11-22T05:22:57.214Z,102571.97
2018-11-22T05:25:26.729Z,102580.16
2018-11-22T05:27:56.414Z,102572.89
2018-11-22T05:30:27.036Z,102574.18
2018-11-22T05:32:56.305Z,102567.38
2018-11-22T05:35:25.463Z,102572.55
2018-11-22T05:37:54.993Z,102574.06
2018-11-22T05:40:25.698Z,102573.02
2018-11-22T05:42:54.845Z,102580.54
2018-11-22T05:45:25.910Z,102580.91
2018-11-22T05:47:55.484Z,102585.45
2018-11-22T05:50:26.278Z,102579.95
2018-11-22T05:52:56.974Z,102577.12
2018-11-22T05:55:26.865Z,102582.75
2018-11-22T05:57:55.926Z,102571.95
2018-11-22T06:00:31.742Z,102580.77
2018-11-22T06:03:02.809Z,102582.61
2018-11-22T06:05:32.844Z,102584.90
2018-11-22T06:08:01.945Z,102586.34
2018-11-22T06:10:33.508Z,102584.82
2018-11-22T06:13:03.476Z,102583.71
2018-11-22T06:15:32.855Z,102595.13
2018-11-22T06:18:02.192Z,102589.55
2018-11-22T06:20:32.150Z,102596.02
2018-11-22T06:23:01.508Z,102588.52
2018-11-22T06:25:31.723Z,102575.16
2018-11-22T06:28:01.043Z,102589.10
2018-11-22T06:30:31.754Z,102587.08
2018-11-22T06:33:02.042Z,102595.80
2018-11-22T06:35:32.428Z,102598.12
2018-11-22T06:38:01.466Z,102591.17
2018-11-22T06:40:30.998Z,102593.47
2018-11-22T06:43:00.740Z,102591.55
2018-11-22T06:45:32.508Z,102578.72
2018-11-22T06:48:01.894Z,102588.88
2018-11-22T06:50:31.240Z,102591.66
2018-11-22T06:53:00.316Z,102589.04
2018-11-22T06:55:31.634Z,102586.03
2018-11-22T06:58:00.944Z,102593.40
2018-11-22T07:00:31.254Z,102596.53
2018-11-22T07:03:02.220Z,102596.76
2018-11-22T07:05:30.924Z,102598.11
2018-11-22T07:08:00.489Z,102592.94
2018-11-22T07:10:29.192Z,102597.72
2018-11-22T07:12:59.333Z,102595.64
2018-11-22T07:15:28.365Z,102594.76
2018-11-22T07:17:57.445Z,102592.70
2018-11-22T07:20:28.407Z,102598.92
2018-11-22T07:22:59.232Z,102588.98
2018-11-22T07:25:28.318Z,102593.73
2018-11-22T07:27:57.387Z,102592.73
2018-11-22T07:30:34.359Z,102595.64
2018-11-22T07:33:04.793Z,102599.56
2018-11-22T07:35:34.633Z,102594.06
2018-11-22T07:38:04.054Z,102597.72
2018-11-22T07:40:34.021Z,102596.88
2018-11-22T07:43:03.238Z,102593.34
2018-11-22T07:45:36.406Z,102598.92
2018-11-22T07:48:06.866Z,102603.25
2018-11-22T07:50:36.475Z,102599.05
2018-11-22T07:53:06.081Z,102594.25
2018-11-22T07:55:35.056Z,102592.75
2018-11-22T07:58:04.200Z,102591.25
2018-11-22T08:00:36.270Z,102590.52
2018-11-22T08:03:06.524Z,102596.27
2018-11-22T08:05:37.752Z,102604.51
2018-11-22T08:08:07.931Z,102597.55
2018-11-22T08:10:36.969Z,102593.75
2018-11-22T08:13:06.741Z,102599.70
2018-11-22T08:15:37.701Z,102604.62
2018-11-22T08:18:07.397Z,102604.47
2018-11-22T08:20:36.448Z,102601.92
2018-11-22T08:23:06.113Z,102599.50
2018-11-22T08:25:36.024Z,102602.20
2018-11-22T08:28:06.720Z,102607.70
2018-11-22T08:30:35.440Z,102614.59
2018-11-22T08:33:04.713Z,102616.03
2018-11-22T08:35:33.674Z,102614.45
2018-11-22T08:38:02.666Z,102609.41
2018-11-22T08:40:31.885Z,102611.84
2018-11-22T08:43:01.737Z,102613.73
2018-11-22T08:45:32.100Z,102611.22
2018-11-22T08:48:01.322Z,102606.91
2018-11-22T08:50:30.862Z,102609.09
2018-11-22T08:53:01.291Z,102608.28
2018-11-22T08:55:30.560Z,102609.11
2018-11-22T08:58:00.091Z,102609.00
2018-11-22T09:00:30.038Z,102609.80
2018-11-22T09:03:01.180Z,102608.35
2018-11-22T09:05:36.930Z,102606.50
2018-11-22T09:08:09.319Z,102611.15
2018-11-22T09:10:40.044Z,102611.91
2018-11-22T09:13:09.602Z,102609.48
2018-11-22T09:15:39.869Z,102612.80
2018-11-22T09:18:10.255Z,102612.52
2018-11-22T09:20:39.892Z,102613.33
2018-11-22T09:23:09.719Z,102614.34
2018-11-22T09:25:39.863Z,102616.40
2018-11-22T09:28:10.017Z,102615.82
2018-11-22T09:30:40.280Z,102621.25
2018-11-22T09:33:10.873Z,102617.45
2018-11-22T09:35:40.611Z,102617.82
2018-11-22T09:38:10.359Z,102618.38
2018-11-22T09:40:40.807Z,102620.62
2018-11-22T09:43:11.192Z,102622.30
2018-11-22T09:45:42.072Z,102623.74
2018-11-22T09:48:12.160Z,102626.59
2018-11-22T09:50:41.990Z,102626.20
2018-11-22T09:53:12.127Z,102629.70
2018-11-22T09:55:40.961Z,102621.58
2018-11-22T09:58:10.686Z,102630.03
2018-11-22T10:00:40.500Z,102624.78
2018-11-22T10:03:11.555Z,102622.59
2018-11-22T10:05:40.803Z,102628.18
2018-11-22T10:08:10.265Z,102623.89
2018-11-22T10:10:41.279Z,102625.52
2018-11-22T10:13:11.689Z,102622.62
2018-11-22T10:15:40.884Z,102622.52
2018-11-22T10:18:10.595Z,102618.84
2018-11-22T10:20:42.455Z,102620.20
2018-11-22T10:23:11.464Z,102616.64
2018-11-22T10:25:41.448Z,102613.16
2018-11-22T10:28:10.552Z,102610.77
2018-11-22T10:30:41.208Z,102610.05
2018-11-22T10:33:10.709Z,102610.81
2018-11-22T10:35:40.945Z,102611.96
2018-11-22T10:38:11.476Z,102604.53
2018-11-22T10:40:41.116Z,102605.25
2018-11-22T10:43:11.064Z,102607.80
2018-11-22T10:45:41.117Z,102611.31
2018-11-22T10:48:12.286Z,102613.55
2018-11-22T10:50:40.949Z,102605.42
2018-11-22T10:53:11.107Z,102601.19
2018-11-22T10:55:42.818Z,102594.34
2018-11-22T10:58:11.795Z,102593.64
2018-11-22T11:00:58.698Z,102597.69
2018-11-22T11:03:48.070Z,102595.85
2018-11-22T11:06:42.103Z,102593.19
2018-11-22T11:09:11.043Z,102586.66
2018-11-22T11:11:40.938Z,102591.39
2018-11-22T11:14:11.057Z,102585.34
2018-11-22T11:16:41.393Z,102582.20
2018-11-22T11:19:12.503Z,102578.83
2018-11-22T11:21:41.891Z,102572.11
2018-11-22T11:24:12.021Z,102575.17
2018-11-22T11:26:41.306Z,102568.44
2018-11-22T11:29:15.337Z,102568.31
2018-11-22T11:31:50.671Z,102571.47
2018-11-22T11:34:22.331Z,102572.69
2018-11-22T11:36:51.743Z,102567.89
2018-11-22T11:39:22.807Z,102566.91
2018-11-22T11:41:52.163Z,102564.00
2018-11-22T11:44:21.333Z,102563.80
2018-11-22T11:46:52.469Z,102563.02
2018-11-22T11:49:23.118Z,102559.88
2018-11-22T11:52:00.951Z,102558.84
2018-11-22T11:54:31.918Z,102559.28
2018-11-22T11:57:02.310Z,102558.48
2018-11-22T11:59:33.854Z,102558.22
2018-11-22T12:02:03.090Z,102556.23
2018-11-22T12:04:33.616Z,102551.42
2018-11-22T12:07:02.678Z,102548.13
2018-11-22T12:09:32.858Z,102549.02
2018-11-22T12:12:03.319Z,102538.81
2018-11-22T12:14:33.368Z,102534.37
2018-11-22T12:17:02.620Z,102537.01
2018-11-22T12:19:34.759Z,102540.84
2018-11-22T12:22:05.170Z,102537.77
2018-11-22T12:24:34.743Z,102533.81
2018-11-22T12:27:03.739Z,102529.39
2018-11-22T12:29:32.415Z,102530.84
2018-11-22T12:32:18.917Z,102527.59
2018-11-22T12:35:11.942Z,102523.20
2018-11-22T12:37:43.302Z,102521.91
2018-11-22T12:40:12.438Z,102515.20
2018-11-22T12:42:41.407Z,102521.08
2018-11-22T12:45:10.100Z,102518.73
2018-11-22T12:47:39.190Z,102515.58
2018-11-22T12:50:09.696Z,102516.32
2018-11-22T12:52:40.038Z,102516.87
2018-11-22T12:55:11.130Z,102509.59
2018-11-22T12:57:40.281Z,102508.01
2018-11-22T13:00:12.228Z,102512.00
2018-11-22T13:02:42.446Z,102506.60
2018-11-22T13:05:13.545Z,102502.47
2018-11-22T13:07:42.814Z,102498.98
2018-11-22T13:10:16.565Z,102494.94
2018-11-22T13:12:46.769Z,102498.83
2018-11-22T13:15:17.220Z,102499.33
2018-11-22T13:17:46.120Z,102493.01
2018-11-22T13:20:18.011Z,102495.30
2018-11-22T13:22:47.792Z,102495.74
2018-11-22T13:25:18.447Z,102499.62
2018-11-22T13:27:47.440Z,102501.22
2018-11-22T13:30:18.580Z,102491.69
2018-11-22T13:32:48.165Z,102493.26
2018-11-22T13:35:18.066Z,102498.29
2018-11-22T13:37:48.350Z,102491.91
2018-11-22T13:40:18.301Z,102490.86
2018-11-22T13:42:48.710Z,102484.33
2018-11-22T13:45:23.603Z,102494.26
2018-11-22T13:47:53.597Z,102481.89
2018-11-22T13:50:25.295Z,102482.94
2018-11-22T13:52:57.301Z,102478.45
2018-11-22T13:55:26.557Z,102479.45
2018-11-22T13:57:55.930Z,102478.23
2018-11-22T14:00:26.583Z,102482.59
2018-11-22T14:02:57.015Z,102482.38
2018-11-22T14:05:26.346Z,102477.90
2018-11-22T14:07:56.194Z,102478.45
2018-11-22T14:10:25.248Z,102478.98
2018-11-22T14:12:54.073Z,102482.82
2018-11-22T14:15:24.619Z,102479.42
2018-11-22T14:17:55.237Z,102483.44
2018-11-22T14:20:28.622Z,102485.75
2018-11-22T14:22:57.647Z,102478.74
2018-11-22T14:25:26.745Z,102479.33
2018-11-22T14:27:56.183Z,102477.20
2018-11-22T14:30:27.163Z,102478.09
2018-11-22T14:32:56.907Z,102479.19
2018-11-22T14:35:26.790Z,102480.64
2018-11-22T14:37:56.557Z,102477.59
2018-11-22T14:40:30.409Z,102483.32
2018-11-22T14:42:59.647Z,102482.96
2018-11-22T14:45:30.222Z,102485.81
2018-11-22T14:48:01.970Z,102487.34
2018-11-22T14:50:39.246Z,102478.98
2018-11-22T14:53:10.133Z,102481.87
2018-11-22T14:55:39.183Z,102480.14
2018-11-22T14:58:09.430Z,102475.66
2018-11-22T15:00:38.188Z,102478.98
2018-11-22T15:03:07.571Z,102478.39
2018-11-22T15:05:36.679Z,102477.37
2018-11-22T15:08:05.988Z,102474.39
2018-11-22T15:10:35.428Z,102481.86
2018-11-22T15:13:05.478Z,102482.38
2018-11-22T15:15:34.858Z,102478.84
2018-11-22T15:18:04.066Z,102478.53
2018-11-22T15:20:32.806Z,102474.63
2018-11-22T15:23:01.825Z,102483.02
2018-11-22T15:25:30.819Z,102484.48
2018-11-22T15:27:59.877Z,102481.00
2018-11-22T15:30:30.217Z,102481.88
2018-11-22T15:33:00.485Z,102476.80
2018-11-22T15:35:30.475Z,102482.82
2018-11-22T15:38:00.481Z,102478.94
2018-11-22T15:40:29.670Z,102485.88
2018-11-22T15:43:00.618Z,102478.20
2018-11-22T15:45:34.762Z,102478.28
2018-11-22T15:47:59.723Z,102484.16
2018-11-22T15:50:29.338Z,102491.14
2018-11-22T15:52:58.348Z,102485.42
2018-11-22T15:55:27.723Z,102484.96
2018-11-22T15:57:57.956Z,102489.92
2018-11-22T16:00:34.251Z,102485.41
2018-11-22T16:03:03.726Z,102491.31
2018-11-22T16:05:33.387Z,102491.17
2018-11-22T16:08:02.619Z,102495.64
2018-11-22T16:10:33.733Z,102489.20
2018-11-22T16:13:07.873Z,102489.70
2018-11-22T16:15:51.821Z,102488.05
2018-11-22T16:18:21.231Z,102486.93
2018-11-22T16:20:50.363Z,102492.50
2018-11-22T16:23:19.486Z,102494.20
2018-11-22T16:25:49.267Z,102499.30
2018-11-22T16:28:17.951Z,102486.77
2018-11-22T16:30:47.318Z,102493.00
2018-11-22T16:33:17.058Z,102491.13
2018-11-22T16:35:46.795Z,102493.28
2018-11-22T16:38:16.375Z,102496.34
2018-11-22T16:40:46.292Z,102490.94
2018-11-22T16:43:15.908Z,102486.98
2018-11-22T16:45:44.902Z,102486.43
2018-11-22T16:48:14.921Z,102492.16
2018-11-22T16:50:44.364Z,102487.84
2018-11-22T16:53:13.519Z,102492.05
2018-11-22T16:55:42.582Z,102492.64
2018-11-22T16:58:12.311Z,102493.80
2018-11-22T17:00:42.049Z,102496.73
2018-11-22T17:03:12.919Z,102498.30
2018-11-22T17:05:42.643Z,102503.25
2018-11-22T17:08:13.090Z,102510.80
2018-11-22T17:10:42.627Z,102506.83
2018-11-22T17:13:11.929Z,102504.62
2018-11-22T17:15:43.395Z,102501.83
2018-11-22T17:18:12.747Z,102505.63
2018-11-22T17:20:43.489Z,102501.88
2018-11-22T17:23:12.498Z,102501.88
2018-11-22T17:25:41.503Z,102505.47
2018-11-22T17:28:10.718Z,102505.23
2018-11-22T17:30:43.460Z,102502.31
2018-11-22T17:33:13.843Z,102501.75
2018-11-22T17:35:43.440Z,102503.41
2018-11-22T17:38:14.998Z,102494.63
2018-11-22T17:40:45.780Z,102498.16
2018-11-22T17:43:15.454Z,102497.70
2018-11-22T17:45:45.784Z,102500.95
2018-11-22T17:48:17.023Z,102500.38
2018-11-22T17:50:47.318Z,102501.19
2018-11-22T17:53:16.423Z,102497.95
2018-11-22T17:55:46.187Z,102498.08
2018-11-22T17:58:16.639Z,102499.16
2018-11-22T18:00:48.448Z,102503.92
2018-11-22T18:03:17.507Z,102500.57
2018-11-22T18:05:47.431Z,102501.38
2018-11-22T18:08:18.752Z,102503.03
2018-11-22T18:10:48.870Z,102502.97
2018-11-22T18:13:18.356Z,102505.45
2018-11-22T18:15:57.750Z,102506.77
2018-11-22T18:18:28.493Z,102504.17
2018-11-22T18:20:57.902Z,102511.44
2018-11-22T18:23:26.966Z,102511.47
2018-11-22T18:25:56.720Z,102507.01
2018-11-22T18:28:27.833Z,102511.73
2018-11-22T18:30:56.883Z,102510.18
2018-11-22T18:33:25.951Z,102510.55
2018-11-22T18:35:56.910Z,102507.92
2018-11-22T18:38:25.967Z,102511.39
2018-11-22T18:40:57.234Z,102503.46
2018-11-22T18:43:25.957Z,102510.18
2018-11-22T18:45:55.711Z,102505.83
2018-11-22T18:48:25.499Z,102508.55
2018-11-22T18:50:54.659Z,102503.64
2018-11-22T18:53:24.881Z,102502.42
2018-11-22T18:55:54.814Z,102498.19
2018-11-22T18:58:23.791Z,102502.13
2018-11-22T19:00:54.868Z,102500.29
2018-11-22T19:03:24.333Z,102504.23
2018-11-22T19:05:54.600Z,102503.02
2018-11-22T19:08:24.656Z,102505.09
2018-11-22T19:10:54.747Z,102507.00
2018-11-22T19:13:23.813Z,102506.05
2018-11-22T19:15:53.769Z,102506.23
2018-11-22T19:18:22.513Z,102504.75
2018-11-22T19:20:51.242Z,102507.70
2018-11-22T19:23:20.643Z,102497.95
2018-11-22T19:25:49.975Z,102504.45
2018-11-22T19:28:19.933Z,102502.17
2018-11-22T19:30:49.230Z,102504.98
2018-11-22T19:33:19.760Z,102514.75
2018-11-22T19:35:51.095Z,102508.04
2018-11-22T19:38:20.558Z,102510.09
2018-11-22T19:40:50.199Z,102511.44
2018-11-22T19:43:19.180Z,102517.49
2018-11-22T19:45:50.265Z,102515.94
2018-11-22T19:48:19.299Z,102507.52
2018-11-22T19:50:49.370Z,102517.31
2018-11-22T19:53:18.310Z,102512.73
2018-11-22T19:55:47.612Z,102515.09
2018-11-22T19:58:17.774Z,102510.11
2018-11-22T20:00:47.762Z,102509.92
2018-11-22T20:03:16.457Z,102516.02
2018-11-22T20:05:46.756Z,102518.89
2018-11-22T20:08:17.762Z,102513.39
2018-11-22T20:10:48.196Z,102510.00
2018-11-22T20:13:17.490Z,102519.20
2018-11-22T20:15:47.053Z,102511.88
2018-11-22T20:18:15.790Z,102511.52
2018-11-22T20:20:49.598Z,102515.56
2018-11-22T20:23:17.638Z,102516.08
2018-11-22T20:25:46.031Z,102516.45
2018-11-22T20:28:15.327Z,102523.07
2018-11-22T20:30:45.723Z,102514.95
2018-11-22T20:33:14.451Z,102516.68
2018-11-22T20:35:43.497Z,102513.80
2018-11-22T20:38:13.877Z,102510.14
2018-11-22T20:40:43.022Z,102513.91
2018-11-22T20:43:12.059Z,102515.28
2018-11-22T20:45:41.738Z,102505.49
2018-11-22T20:48:11.813Z,102508.67
2018-11-22T20:50:40.820Z,102507.71
2018-11-22T20:53:09.508Z,102508.67
2018-11-22T20:55:39.681Z,102504.13
2018-11-22T20:58:08.374Z,102507.52
2018-11-22T21:00:38.791Z,102506.93
2018-11-22T21:03:07.967Z,102511.41
2018-11-22T21:05:37.154Z,102503.87
2018-11-22T21:08:05.866Z,102509.56
2018-11-22T21:10:35.640Z,102507.38
2018-11-22T21:13:04.650Z,102508.41
2018-11-22T21:15:34.709Z,102501.99
2018-11-22T21:18:05.122Z,102504.75
2018-11-22T21:20:38.315Z,102510.41
2018-11-22T21:23:07.925Z,102504.42
2018-11-22T21:25:36.633Z,102502.47
2018-11-22T21:28:06.951Z,102501.38
2018-11-22T21:30:37.263Z,102496.77
2018-11-22T21:33:07.067Z,102498.18
2018-11-22T21:35:36.431Z,102494.44
2018-11-22T21:38:07.866Z,102495.92
2018-11-22T21:40:37.091Z,102500.58
2018-11-22T21:43:07.209Z,102490.83
2018-11-22T21:45:37.043Z,102490.47
2018-11-22T21:48:05.977Z,102489.25
2018-11-22T21:50:35.588Z,102489.25
2018-11-22T21:53:04.275Z,102492.53
2018-11-22T21:55:33.275Z,102494.01
2018-11-22T21:58:02.933Z,102490.39
2018-11-22T22:00:42.412Z,102484.77
2018-11-22T22:03:12.626Z,102482.78
2018-11-22T22:05:41.907Z,102482.03
2018-11-22T22:08:10.627Z,102486.77
2018-11-22T22:10:40.270Z,102493.81
2018-11-22T22:13:09.697Z,102486.73
2018-11-22T22:15:39.473Z,102487.77
2018-11-22T22:18:09.776Z,102480.53
2018-11-22T22:20:38.867Z,102487.61
2018-11-22T22:23:13.308Z,102495.04
2018-11-22T22:25:39.304Z,102488.61
2018-11-22T22:28:08.255Z,102487.28
2018-11-22T22:30:37.609Z,102490.47
2018-11-22T22:33:07.624Z,102486.56
2018-11-22T22:35:37.096Z,102482.86
2018-11-22T22:38:05.792Z,102483.77
2018-11-22T22:40:35.232Z,102478.42
2018-11-22T22:43:04.578Z,102477.91
2018-11-22T22:45:33.941Z,102480.78
2018-11-22T22:48:03.466Z,102483.57
2018-11-22T22:50:33.186Z,102478.06
2018-11-22T22:53:02.609Z,102485.23
2018-11-22T22:55:31.892Z,102483.41
2018-11-22T22:58:01.526Z,102488.45
2018-11-22T23:00:47.072Z,102481.67
2018-11-22T23:03:17.315Z,102485.95
2018-11-22T23:05:46.423Z,102485.14
2018-11-22T23:08:15.917Z,102485.95
2018-11-22T23:10:45.558Z,102479.89
2018-11-22T23:13:14.605Z,102477.59
2018-11-22T23:15:46.189Z,102474.80
2018-11-22T23:18:15.263Z,102477.66
2018-11-22T23:20:44.677Z,102479.32
2018-11-22T23:23:13.854Z,102476.94
2018-11-22T23:25:44.045Z,102479.77
2018-11-22T23:28:13.591Z,102476.01
2018-11-22T23:30:43.250Z,102472.77
2018-11-22T23:33:12.646Z,102475.32
2018-11-22T23:35:41.753Z,102482.39
2018-11-22T23:38:16.552Z,102474.88
2018-11-22T23:40:47.926Z,102479.59
2018-11-22T23:43:18.735Z,102487.88
2018-11-22T23:45:47.847Z,102486.68
2018-11-22T23:48:17.312Z,102488.82
2018-11-22T23:50:47.337Z,102495.28
2018-11-22T23:53:16.431Z,102481.50
2018-11-22T23:55:45.508Z,102477.54
2018-11-22T23:58:14.556Z,102480.54
